createdAt,value
2018-10-03T00:01:00.583Z,22.50
2018-10-03T00:03:29.997Z,24.00
2018-10-03T00:05:58.674Z,22.20
2018-10-03T00:08:27.331Z,24.27
2018-10-03T00:10:56.567Z,22.93
2018-10-03T00:13:25.189Z,25.50
2018-10-03T00:15:53.830Z,25.33
2018-10-03T00:18:22.514Z,23.67
2018-10-03T00:20:51.324Z,24.13
2018-10-03T00:23:19.822Z,28.10
2018-10-03T00:25:48.290Z,23.10
2018-10-03T00:28:17.070Z,24.93
2018-10-03T00:30:45.681Z,26.97
2018-10-03T00:33:14.584Z,24.23
2018-10-03T00:35:44.056Z,24.37
2018-10-03T00:38:12.699Z,26.60
2018-10-03T00:40:41.430Z,25.90
2018-10-03T00:43:09.997Z,26.00
2018-10-03T00:45:38.480Z,30.37
2018-10-03T00:48:08.078Z,28.43
2018-10-03T00:50:36.622Z,25.77
2018-10-03T00:53:05.315Z,27.27
2018-10-03T00:55:33.748Z,30.47
2018-10-03T00:58:02.497Z,29.40
2018-10-03T01:00:30.971Z,33.27
2018-10-03T01:02:59.685Z,29.30
2018-10-03T01:05:28.222Z,30.73
2018-10-03T01:07:56.677Z,33.57
2018-10-03T01:10:25.314Z,32.83
2018-10-03T01:12:53.804Z,32.20
2018-10-03T01:15:22.527Z,36.13
2018-10-03T01:17:51.196Z,33.50
2018-10-03T01:20:20.016Z,34.77
2018-10-03T01:22:48.637Z,32.83
2018-10-03T01:25:17.352Z,35.63
2018-10-03T01:27:46.123Z,34.93
2018-10-03T01:30:14.642Z,35.53
2018-10-03T01:32:43.838Z,34.23
2018-10-03T01:35:12.813Z,33.80
2018-10-03T01:37:41.277Z,35.60
2018-10-03T01:40:09.999Z,38.60
2018-10-03T01:42:39.293Z,39.40
2018-10-03T01:45:07.778Z,37.53
2018-10-03T01:47:36.362Z,40.30
2018-10-03T01:50:05.540Z,36.33
2018-10-03T01:52:34.720Z,36.47
2018-10-03T01:55:03.419Z,39.87
2018-10-03T01:57:35.145Z,34.83
2018-10-03T02:00:03.904Z,35.90
2018-10-03T02:02:32.952Z,38.10
2018-10-03T02:05:01.467Z,32.27
2018-10-03T02:07:30.000Z,34.07
2018-10-03T02:09:58.542Z,34.93
2018-10-03T02:12:27.107Z,34.07
2018-10-03T02:14:56.561Z,33.30
2018-10-03T02:17:25.528Z,33.73
2018-10-03T02:19:54.124Z,35.77
2018-10-03T02:22:22.619Z,36.33
2018-10-03T02:24:51.696Z,32.80
2018-10-03T02:27:20.300Z,31.90
2018-10-03T02:29:54.076Z,40.33
2018-10-03T02:32:22.655Z,32.23
2018-10-03T02:34:51.101Z,32.90
2018-10-03T02:37:20.428Z,31.50
2018-10-03T02:39:48.914Z,31.27
2018-10-03T02:42:17.813Z,29.83
2018-10-03T02:44:46.344Z,29.67
2018-10-03T02:47:15.593Z,30.47
2018-10-03T02:49:44.332Z,27.57
2018-10-03T02:52:12.940Z,27.63
2018-10-03T02:54:41.643Z,33.13
2018-10-03T02:57:10.146Z,26.43
2018-10-03T02:59:38.760Z,28.33
2018-10-03T03:02:07.861Z,27.53
2018-10-03T03:04:36.536Z,26.87
2018-10-03T03:07:05.436Z,25.17
2018-10-03T03:09:34.038Z,29.83
2018-10-03T03:12:02.558Z,26.63
2018-10-03T03:14:34.165Z,27.47
2018-10-03T03:17:02.817Z,25.33
2018-10-03T03:19:31.270Z,25.47
2018-10-03T03:22:00.318Z,27.10
2018-10-03T03:24:28.940Z,23.57
2018-10-03T03:26:58.357Z,29.27
2018-10-03T03:29:27.556Z,27.97
2018-10-03T03:31:56.177Z,25.63
2018-10-03T03:34:24.845Z,23.73
2018-10-03T03:36:53.317Z,29.00
2018-10-03T03:39:21.907Z,23.33
2018-10-03T03:41:50.465Z,26.30
2018-10-03T03:44:19.107Z,23.77
2018-10-03T03:46:47.644Z,22.40
2018-10-03T03:49:17.293Z,25.20
2018-10-03T03:51:45.940Z,23.07
2018-10-03T03:54:14.379Z,25.53
2018-10-03T03:56:43.718Z,22.17
2018-10-03T03:59:12.254Z,28.23
2018-10-03T04:01:41.147Z,24.17
2018-10-03T04:04:09.890Z,25.50
2018-10-03T04:06:38.459Z,20.97
2018-10-03T04:09:07.486Z,27.20
2018-10-03T04:11:36.007Z,19.70
2018-10-03T04:14:04.510Z,20.50
2018-10-03T04:16:33.189Z,18.50
2018-10-03T04:19:01.803Z,21.27
2018-10-03T04:21:34.637Z,21.07
2018-10-03T04:24:03.085Z,22.77
2018-10-03T04:26:31.908Z,23.47
2018-10-03T04:29:00.583Z,21.20
2018-10-03T04:31:29.069Z,21.80
2018-10-03T04:33:58.269Z,22.20
2018-10-03T04:36:27.112Z,24.43
2018-10-03T04:38:56.227Z,22.50
2018-10-03T04:41:27.292Z,19.47
2018-10-03T04:43:56.468Z,19.77
2018-10-03T04:46:25.173Z,18.73
2018-10-03T04:49:00.568Z,15.80
2018-10-03T04:51:29.990Z,16.23
2018-10-03T04:53:58.502Z,23.37
2018-10-03T04:56:27.155Z,23.43
2018-10-03T04:58:56.227Z,20.63
2018-10-03T05:01:24.818Z,19.67
2018-10-03T05:03:53.458Z,16.67
2018-10-03T05:06:21.967Z,17.17
2018-10-03T05:08:50.769Z,18.47
2018-10-03T05:11:19.235Z,17.07
2018-10-03T05:13:48.173Z,21.43
2018-10-03T05:16:16.773Z,17.33
2018-10-03T05:18:46.130Z,16.43
2018-10-03T05:21:14.824Z,17.07
2018-10-03T05:23:43.467Z,20.80
2018-10-03T05:26:12.192Z,17.70
2018-10-03T05:28:40.943Z,20.57
2018-10-03T05:31:10.236Z,25.23
2018-10-03T05:33:38.876Z,19.70
2018-10-03T05:36:07.846Z,24.37
2018-10-03T05:38:36.816Z,16.67
2018-10-03T05:41:05.266Z,22.30
2018-10-03T05:43:33.996Z,17.63
2018-10-03T05:46:02.502Z,17.33
2018-10-03T05:48:31.118Z,16.73
2018-10-03T05:50:59.685Z,17.77
2018-10-03T05:53:28.313Z,21.67
2018-10-03T05:55:57.250Z,23.77
2018-10-03T05:58:25.722Z,17.53
2018-10-03T06:00:55.016Z,18.93
2018-10-03T06:03:23.677Z,22.70
2018-10-03T06:05:52.120Z,16.17
2018-10-03T06:08:20.758Z,18.40
2018-10-03T06:10:52.560Z,12.00
2018-10-03T06:13:21.184Z,18.47
2018-10-03T06:15:49.800Z,20.08
2018-10-03T06:18:19.286Z,20.33
2018-10-03T06:20:47.963Z,19.63
2018-10-03T06:23:16.443Z,17.57
2018-10-03T06:25:45.385Z,16.90
2018-10-03T06:28:14.127Z,19.30
2018-10-03T06:30:42.781Z,20.07
2018-10-03T06:33:11.425Z,18.77
2018-10-03T06:35:40.088Z,19.30
2018-10-03T06:38:08.666Z,16.77
2018-10-03T06:40:37.177Z,20.07
2018-10-03T06:43:06.627Z,21.33
2018-10-03T06:45:35.309Z,19.27
2018-10-03T06:48:03.895Z,20.77
2018-10-03T06:50:32.413Z,19.80
2018-10-03T06:53:01.547Z,20.77
2018-10-03T06:55:30.206Z,21.80
2018-10-03T06:57:58.708Z,21.07
2018-10-03T07:00:27.625Z,18.33
2018-10-03T07:02:56.232Z,19.13
2018-10-03T07:05:24.899Z,23.10
2018-10-03T07:07:54.340Z,25.23
2018-10-03T07:10:23.579Z,19.95
2018-10-03T07:12:52.545Z,18.40
2018-10-03T07:15:21.593Z,23.53
2018-10-03T07:17:50.613Z,19.77
2018-10-03T07:20:19.484Z,20.97
2018-10-03T07:22:48.710Z,66.53
2018-10-03T07:25:17.419Z,25.07
2018-10-03T07:27:45.962Z,25.83
2018-10-03T07:30:14.606Z,16.85
2018-10-03T07:32:43.530Z,46.33
2018-10-03T07:35:12.141Z,19.57
2018-10-03T07:37:40.909Z,19.13
2018-10-03T07:40:09.625Z,15.33
2018-10-03T07:42:39.360Z,23.17
2018-10-03T07:45:08.011Z,18.27
2018-10-03T07:47:36.490Z,18.13
2018-10-03T07:50:05.366Z,20.87
2018-10-03T07:52:34.315Z,18.87
2018-10-03T07:55:03.023Z,22.23
2018-10-03T07:57:31.766Z,21.57
2018-10-03T08:00:00.878Z,17.27
2018-10-03T08:02:29.882Z,15.77
2018-10-03T08:04:58.693Z,21.43
2018-10-03T08:07:27.560Z,18.63
2018-10-03T08:09:56.169Z,16.63
2018-10-03T08:12:24.629Z,18.63
2018-10-03T08:14:53.211Z,18.03
2018-10-03T08:17:21.850Z,14.67
2018-10-03T08:19:50.689Z,13.27
2018-10-03T08:22:19.391Z,20.87
2018-10-03T08:24:48.240Z,19.70
2018-10-03T08:27:17.429Z,18.93
2018-10-03T08:29:46.051Z,21.37
2018-10-03T08:32:15.207Z,17.90
2018-10-03T08:34:44.359Z,17.27
2018-10-03T08:37:12.877Z,17.70
2018-10-03T08:39:41.353Z,19.40
2018-10-03T08:42:10.587Z,18.33
2018-10-03T08:44:39.417Z,21.70
2018-10-03T08:47:08.169Z,45.10
2018-10-03T08:49:36.812Z,20.80
2018-10-03T08:52:05.395Z,18.57
2018-10-03T08:54:34.116Z,18.40
2018-10-03T08:57:02.774Z,22.77
2018-10-03T08:59:31.747Z,27.43
2018-10-03T09:02:00.530Z,30.63
2018-10-03T09:04:29.288Z,57.93
2018-10-03T09:06:57.777Z,26.27
2018-10-03T09:09:26.282Z,25.63
2018-10-03T09:11:54.857Z,19.77
2018-10-03T09:14:23.497Z,20.03
2018-10-03T09:16:52.053Z,17.23
2018-10-03T09:19:20.640Z,17.83
2018-10-03T09:21:49.371Z,19.37
2018-10-03T09:24:18.548Z,19.53
2018-10-03T09:26:47.142Z,17.60
2018-10-03T09:29:16.406Z,15.10
2018-10-03T09:31:45.320Z,21.43
2018-10-03T09:34:13.989Z,16.90
2018-10-03T09:36:42.578Z,16.50
2018-10-03T09:39:12.243Z,10.97
2018-10-03T09:41:41.282Z,17.27
2018-10-03T09:44:10.670Z,18.43
2018-10-03T09:46:39.460Z,15.17
2018-10-03T09:49:08.057Z,14.87
2018-10-03T09:51:36.643Z,18.77
2018-10-03T09:54:05.431Z,13.47
2018-10-03T09:56:33.968Z,13.33
2018-10-03T09:59:02.595Z,15.13
2018-10-03T10:01:32.528Z,21.10
2018-10-03T10:04:02.456Z,20.13
2018-10-03T10:06:32.224Z,14.63
2018-10-03T10:09:01.053Z,16.80
2018-10-03T10:11:29.695Z,12.27
2018-10-03T10:13:58.391Z,21.83
2018-10-03T10:16:27.406Z,18.00
2018-10-03T10:18:55.903Z,15.10
2018-10-03T10:21:24.758Z,14.77
2018-10-03T10:23:53.725Z,15.43
2018-10-03T10:26:22.206Z,15.10
2018-10-03T10:28:50.875Z,15.40
2018-10-03T10:31:19.526Z,20.23
2018-10-03T10:33:48.327Z,13.03
2018-10-03T10:36:16.879Z,15.40
2018-10-03T10:38:46.348Z,14.77
2018-10-03T10:41:15.230Z,13.37
2018-10-03T10:43:43.786Z,17.83
2018-10-03T10:46:12.512Z,19.93
2018-10-03T10:48:47.790Z,14.17
2018-10-03T10:51:16.469Z,15.87
2018-10-03T10:53:45.452Z,13.67
2018-10-03T10:56:14.020Z,16.57
2018-10-03T10:58:42.733Z,18.63
2018-10-03T11:01:11.445Z,15.43
2018-10-03T11:03:40.159Z,15.20
2018-10-03T11:06:09.501Z,18.48
2018-10-03T11:08:40.065Z,9.57
2018-10-03T11:11:15.664Z,13.43
2018-10-03T11:13:44.290Z,21.53
2018-10-03T11:16:12.755Z,18.40
2018-10-03T11:18:41.389Z,11.53
2018-10-03T11:21:10.011Z,16.27
2018-10-03T11:23:38.871Z,17.30
2018-10-03T11:26:07.802Z,16.20
2018-10-03T11:28:36.437Z,18.77
2018-10-03T11:31:05.009Z,14.13
2018-10-03T11:33:33.617Z,12.87
2018-10-03T11:36:03.657Z,10.73
2018-10-03T11:38:32.226Z,16.73
2018-10-03T11:41:00.864Z,14.03
2018-10-03T11:43:29.690Z,15.78
2018-10-03T11:45:58.542Z,14.03
2018-10-03T11:48:27.222Z,14.80
2018-10-03T11:50:56.618Z,12.90
2018-10-03T11:53:25.589Z,11.03
2018-10-03T11:55:54.352Z,19.15
2018-10-03T11:58:23.133Z,13.83
2018-10-03T12:00:51.805Z,15.53
2018-10-03T12:03:20.368Z,13.62
2018-10-03T12:05:49.715Z,11.38
2018-10-03T12:08:18.220Z,12.65
2018-10-03T12:10:46.763Z,13.70
2018-10-03T12:13:15.550Z,10.55
2018-10-03T12:15:44.169Z,12.88
2018-10-03T12:18:13.389Z,11.60
2018-10-03T12:20:42.065Z,16.05
2018-10-03T12:23:10.931Z,9.73
2018-10-03T12:25:40.272Z,14.23
2018-10-03T12:28:09.109Z,13.43
2018-10-03T12:30:37.611Z,15.15
2018-10-03T12:33:06.213Z,11.43
2018-10-03T12:35:35.668Z,14.03
2018-10-03T12:38:04.479Z,12.10
2018-10-03T12:40:33.650Z,14.33
2018-10-03T12:43:02.405Z,12.58
2018-10-03T12:45:31.141Z,14.18
2018-10-03T12:48:00.496Z,12.20
2018-10-03T12:50:29.115Z,12.82
2018-10-03T12:52:57.654Z,15.73
2018-10-03T12:55:26.252Z,15.08
2018-10-03T12:57:54.890Z,11.97
2018-10-03T13:00:27.844Z,12.55
2018-10-03T13:02:56.650Z,18.30
2018-10-03T13:05:25.180Z,11.97
2018-10-03T13:07:54.042Z,17.65
2018-10-03T13:10:22.679Z,10.87
2018-10-03T13:12:51.209Z,12.68
2018-10-03T13:15:19.813Z,11.80
2018-10-03T13:17:49.502Z,13.85
2018-10-03T13:20:18.021Z,9.20
2018-10-03T13:22:46.623Z,13.80
2018-10-03T13:25:15.907Z,14.60
2018-10-03T13:27:44.408Z,17.12
2018-10-03T13:30:13.590Z,11.60
2018-10-03T13:32:42.393Z,17.03
2018-10-03T13:35:11.384Z,11.43
2018-10-03T13:37:40.277Z,12.00
2018-10-03T13:40:08.984Z,15.13
2018-10-03T13:42:37.595Z,19.17
2018-10-03T13:45:06.962Z,16.82
2018-10-03T13:47:35.586Z,18.13
2018-10-03T13:50:04.550Z,12.82
2018-10-03T13:52:33.205Z,16.33
2018-10-03T13:55:01.835Z,13.73
2018-10-03T13:57:30.260Z,13.40
2018-10-03T13:59:59.258Z,14.33
2018-10-03T14:02:28.577Z,14.40
2018-10-03T14:04:57.874Z,13.60
2018-10-03T14:07:27.312Z,14.10
2018-10-03T14:09:55.917Z,12.60
2018-10-03T14:12:24.809Z,14.77
2018-10-03T14:14:53.508Z,13.72
2018-10-03T14:17:22.284Z,12.50
2018-10-03T14:19:50.847Z,11.67
2018-10-03T14:22:19.521Z,14.17
2018-10-03T14:24:48.376Z,10.90
2018-10-03T14:27:23.398Z,11.80
2018-10-03T14:29:52.189Z,15.07
2018-10-03T14:32:20.996Z,13.17
2018-10-03T14:34:49.721Z,16.07
2018-10-03T14:37:18.529Z,13.50
2018-10-03T14:39:47.701Z,19.80
2018-10-03T14:42:17.533Z,11.33
2018-10-03T14:44:46.479Z,16.82
2018-10-03T14:47:15.274Z,12.78
2018-10-03T14:49:45.047Z,16.17
2018-10-03T14:52:13.781Z,13.03
2018-10-03T14:54:42.349Z,12.68
2018-10-03T14:57:11.192Z,15.63
2018-10-03T14:59:39.932Z,10.88
2018-10-03T15:02:08.770Z,12.20
2018-10-03T15:04:37.477Z,13.03
2018-10-03T15:07:07.102Z,12.88
2018-10-03T15:09:36.174Z,13.48
2018-10-03T15:12:04.946Z,13.15
2018-10-03T15:14:33.544Z,16.43
2018-10-03T15:17:02.056Z,16.37
2018-10-03T15:19:30.582Z,13.53
2018-10-03T15:21:59.975Z,14.70
2018-10-03T15:24:28.679Z,13.78
2018-10-03T15:26:57.434Z,13.67
2018-10-03T15:29:26.077Z,12.63
2018-10-03T15:31:55.257Z,16.47
2018-10-03T15:34:24.269Z,12.77
2018-10-03T15:36:52.992Z,16.27
2018-10-03T15:39:21.838Z,11.57
2018-10-03T15:41:50.509Z,12.03
2018-10-03T15:44:19.191Z,13.70
2018-10-03T15:46:47.934Z,14.50
2018-10-03T15:49:16.437Z,12.83
2018-10-03T15:51:44.952Z,12.63
2018-10-03T15:54:13.642Z,11.53
2018-10-03T15:56:42.498Z,15.27
2018-10-03T15:59:11.606Z,16.73
2018-10-03T16:01:40.580Z,14.47
2018-10-03T16:04:09.866Z,13.23
2018-10-03T16:06:38.395Z,12.93
2018-10-03T16:09:08.202Z,12.57
2018-10-03T16:11:37.189Z,11.03
2018-10-03T16:14:05.764Z,11.37
2018-10-03T16:16:34.584Z,9.97
2018-10-03T16:19:03.988Z,13.67
2018-10-03T16:21:35.422Z,13.07
2018-10-03T16:24:04.308Z,14.87
2018-10-03T16:26:32.979Z,13.67
2018-10-03T16:29:01.805Z,13.53
2018-10-03T16:31:30.929Z,12.60
2018-10-03T16:34:00.477Z,15.50
2018-10-03T16:36:29.283Z,12.30
2018-10-03T16:38:58.014Z,11.63
2018-10-03T16:41:26.634Z,13.57
2018-10-03T16:43:55.262Z,12.50
2018-10-03T16:46:23.940Z,11.63
2018-10-03T16:48:52.815Z,14.63
2018-10-03T16:51:21.506Z,14.07
2018-10-03T16:53:50.749Z,11.10
2018-10-03T16:56:19.665Z,12.27
2018-10-03T16:58:48.388Z,12.10
2018-10-03T17:01:17.020Z,12.10
2018-10-03T17:03:45.532Z,14.60
2018-10-03T17:06:14.314Z,15.17
2018-10-03T17:08:46.017Z,16.07
2018-10-03T17:11:14.895Z,10.90
2018-10-03T17:13:54.528Z,10.67
2018-10-03T17:16:23.492Z,17.43
2018-10-03T17:18:52.270Z,16.10
2018-10-03T17:21:21.186Z,13.53
2018-10-03T17:23:50.124Z,13.23
2018-10-03T17:26:18.858Z,16.07
2018-10-03T17:28:48.248Z,14.00
2018-10-03T17:31:16.774Z,13.70
2018-10-03T17:33:45.781Z,13.30
2018-10-03T17:36:14.418Z,15.40
2018-10-03T17:38:43.611Z,11.90
2018-10-03T17:41:12.536Z,34.53
2018-10-03T17:43:41.214Z,17.60
2018-10-03T17:46:09.925Z,20.30
2018-10-03T17:48:38.846Z,13.30
2018-10-03T17:51:07.789Z,17.63
2018-10-03T17:53:37.014Z,16.33
2018-10-03T17:56:05.613Z,15.27
2018-10-03T17:58:34.223Z,17.30
2018-10-03T18:01:02.716Z,15.70
2018-10-03T18:03:31.765Z,16.23
2018-10-03T18:06:03.402Z,17.40
2018-10-03T18:08:32.069Z,14.53
2018-10-03T18:11:00.971Z,19.00
2018-10-03T18:13:29.969Z,13.83
2018-10-03T18:15:58.636Z,17.40
2018-10-03T18:18:27.662Z,15.03
2018-10-03T18:20:56.253Z,20.53
2018-10-03T18:23:25.165Z,15.23
2018-10-03T18:25:53.990Z,18.10
2018-10-03T18:28:22.735Z,15.90
2018-10-03T18:30:51.963Z,15.67
2018-10-03T18:33:20.842Z,15.20
2018-10-03T18:35:49.837Z,14.97
2018-10-03T18:38:18.986Z,13.50
2018-10-03T18:40:48.259Z,16.67
2018-10-03T18:43:17.711Z,15.00
2018-10-03T18:45:47.596Z,14.40
2018-10-03T18:48:17.439Z,11.30
2018-10-03T18:50:46.958Z,17.03
2018-10-03T18:53:16.455Z,14.70
2018-10-03T18:55:45.760Z,15.43
2018-10-03T18:58:15.123Z,18.00
2018-10-03T19:00:45.064Z,15.60
2018-10-03T19:03:14.687Z,16.60
2018-10-03T19:05:44.031Z,20.77
2018-10-03T19:08:14.867Z,19.90
2018-10-03T19:10:44.202Z,21.73
2018-10-03T19:13:13.868Z,15.13
2018-10-03T19:15:43.222Z,13.97
2018-10-03T19:18:13.113Z,17.60
2018-10-03T19:20:42.455Z,20.67
2018-10-03T19:23:11.463Z,17.00
2018-10-03T19:25:40.912Z,17.93
2018-10-03T19:28:12.013Z,16.90
2018-10-03T19:30:41.692Z,18.77
2018-10-03T19:33:11.786Z,17.70
2018-10-03T19:35:42.045Z,13.90
2018-10-03T19:38:11.238Z,19.47
2018-10-03T19:40:41.119Z,16.40
2018-10-03T19:43:10.221Z,18.83
2018-10-03T19:45:39.342Z,13.17
2018-10-03T19:48:08.591Z,14.57
2018-10-03T19:50:37.152Z,17.50
2018-10-03T19:53:05.778Z,15.40
2018-10-03T19:55:34.921Z,13.27
2018-10-03T19:58:03.935Z,12.47
2018-10-03T20:00:32.782Z,18.10
2018-10-03T20:03:07.290Z,15.13
2018-10-03T20:05:35.887Z,11.97
2018-10-03T20:08:04.542Z,15.93
2018-10-03T20:10:33.503Z,14.13
2018-10-03T20:13:02.511Z,12.23
2018-10-03T20:15:31.146Z,19.00
2018-10-03T20:18:01.385Z,12.23
2018-10-03T20:20:30.047Z,17.87
2018-10-03T20:22:58.895Z,14.77
2018-10-03T20:25:27.650Z,14.33
2018-10-03T20:27:56.234Z,15.23
2018-10-03T20:30:24.852Z,12.73
2018-10-03T20:32:54.037Z,16.13
2018-10-03T20:35:23.439Z,11.20
2018-10-03T20:37:52.468Z,15.37
2018-10-03T20:40:21.174Z,17.27
2018-10-03T20:42:49.909Z,15.87
2018-10-03T20:45:18.598Z,16.80
2018-10-03T20:47:47.321Z,17.30
2018-10-03T20:50:17.721Z,18.17
2018-10-03T20:52:46.449Z,15.47
2018-10-03T20:55:14.978Z,14.47
2018-10-03T20:57:43.840Z,13.17
2018-10-03T21:00:12.383Z,14.07
2018-10-03T21:02:41.609Z,16.27
2018-10-03T21:05:10.127Z,12.00
2018-10-03T21:07:39.058Z,17.10
2018-10-03T21:10:08.266Z,13.97
2018-10-03T21:12:37.329Z,17.77
2018-10-03T21:15:07.345Z,12.73
2018-10-03T21:17:36.029Z,14.17
2018-10-03T21:20:05.647Z,15.67
2018-10-03T21:22:34.281Z,13.53
2018-10-03T21:25:02.997Z,19.33
2018-10-03T21:27:31.526Z,15.10
2018-10-03T21:30:00.137Z,14.07
2018-10-03T21:32:28.976Z,13.23
2018-10-03T21:34:57.410Z,13.30
2018-10-03T21:37:26.115Z,12.20
2018-10-03T21:39:54.688Z,14.87
2018-10-03T21:42:23.348Z,14.27
2018-10-03T21:44:51.893Z,15.50
2018-10-03T21:47:20.784Z,13.97
2018-10-03T21:49:49.473Z,10.67
2018-10-03T21:52:18.247Z,14.33
2018-10-03T21:54:46.835Z,16.70
2018-10-03T21:57:15.454Z,16.83
2018-10-03T21:59:44.273Z,20.23
2018-10-03T22:02:13.392Z,11.37
2018-10-03T22:04:41.863Z,15.83
2018-10-03T22:07:10.313Z,15.77
2018-10-03T22:09:38.954Z,11.77
2018-10-03T22:12:07.616Z,16.30
2018-10-03T22:14:37.085Z,15.23
2018-10-03T22:17:09.738Z,16.27
2018-10-03T22:19:38.651Z,14.37
2018-10-03T22:22:07.222Z,18.97
2018-10-03T22:24:35.821Z,14.93
2018-10-03T22:27:04.377Z,14.47
2018-10-03T22:29:33.310Z,13.23
2018-10-03T22:32:01.886Z,14.13
2018-10-03T22:34:31.299Z,22.43
2018-10-03T22:36:59.972Z,16.50
2018-10-03T22:39:28.562Z,14.10
2018-10-03T22:41:57.071Z,16.10
2018-10-03T22:44:25.945Z,15.87
2018-10-03T22:46:54.958Z,11.30
2018-10-03T22:49:23.523Z,11.50
2018-10-03T22:51:52.392Z,14.10
2018-10-03T22:54:21.529Z,13.90
2018-10-03T22:56:50.738Z,16.77
2018-10-03T22:59:19.293Z,16.10
2018-10-03T23:01:47.792Z,15.70
2018-10-03T23:04:16.233Z,13.77
2018-10-03T23:06:45.950Z,16.10
2018-10-03T23:09:14.452Z,15.77
2018-10-03T23:11:43.121Z,14.83
2018-10-03T23:14:11.559Z,18.17
2018-10-03T23:16:40.172Z,15.93
2018-10-03T23:19:08.732Z,16.43
2018-10-03T23:21:37.556Z,15.63
2018-10-03T23:24:06.104Z,19.27
2018-10-03T23:26:34.620Z,11.73
2018-10-03T23:29:03.475Z,16.87
2018-10-03T23:31:32.199Z,12.97
2018-10-03T23:34:01.037Z,14.97
2018-10-03T23:36:29.817Z,16.00
2018-10-03T23:38:58.460Z,16.80
2018-10-03T23:41:28.442Z,15.47
2018-10-03T23:43:57.092Z,13.47
2018-10-03T23:46:25.950Z,18.50
2018-10-03T23:48:54.458Z,12.17
2018-10-03T23:51:23.113Z,12.97
2018-10-03T23:53:51.659Z,15.23
2018-10-03T23:56:20.401Z,15.53
2018-10-03T23:58:48.925Z,15.30
